createdAt,value
2018-04-02T00:00:12.544Z,995.50
2018-04-02T00:01:12.572Z,995.49
2018-04-02T00:02:12.596Z,995.51
2018-04-02T00:03:12.622Z,995.48
2018-04-02T00:04:12.648Z,995.47
2018-04-02T00:05:12.674Z,995.50
2018-04-02T00:06:12.700Z,995.47
2018-04-02T00:07:12.728Z,995.51
2018-04-02T00:08:12.760Z,995.50
2018-04-02T00:09:12.779Z,995.42
2018-04-02T00:10:12.803Z,995.46
2018-04-02T00:11:12.829Z,995.38
2018-04-02T00:12:12.856Z,995.43
2018-04-02T00:13:12.881Z,995.44
2018-04-02T00:14:12.908Z,995.45
2018-04-02T00:15:12.932Z,995.46
2018-04-02T00:16:12.958Z,995.44
2018-04-02T00:17:12.988Z,995.41
2018-04-02T00:18:13.011Z,995.37
2018-04-02T00:19:13.037Z,995.39
2018-04-02T00:20:13.063Z,995.35
2018-04-02T00:21:13.088Z,995.31
2018-04-02T00:22:13.115Z,995.32
2018-04-02T00:23:13.140Z,995.29
2018-04-02T00:24:13.165Z,995.33
2018-04-02T00:25:13.200Z,995.33
2018-04-02T00:26:13.224Z,995.36
2018-04-02T00:27:13.244Z,995.34
2018-04-02T00:28:13.270Z,995.29
2018-04-02T00:29:13.302Z,995.29
2018-04-02T00:30:13.321Z,995.31
2018-04-02T00:31:13.347Z,995.28
2018-04-02T00:32:13.373Z,995.34
2018-04-02T00:33:13.399Z,995.35
2018-04-02T00:34:13.425Z,995.34
2018-04-02T00:35:13.452Z,995.29
2018-04-02T00:36:13.477Z,995.33
2018-04-02T00:37:13.503Z,995.26
2018-04-02T00:38:13.528Z,995.24
2018-04-02T00:39:13.554Z,995.25
2018-04-02T00:40:13.579Z,995.24
2018-04-02T00:41:13.605Z,995.17
2018-04-02T00:42:13.630Z,995.21
2018-04-02T00:43:13.655Z,995.19
2018-04-02T00:44:13.683Z,995.15
2018-04-02T00:45:13.708Z,995.21
2018-04-02T00:46:13.734Z,995.10
2018-04-02T00:47:13.759Z,995.10
2018-04-02T00:48:13.785Z,995.16
2018-04-02T00:49:13.810Z,995.11
2018-04-02T00:50:13.838Z,995.09
2018-04-02T00:51:13.864Z,995.12
2018-04-02T00:52:13.893Z,995.14
2018-04-02T00:53:13.916Z,995.13
2018-04-02T00:54:13.941Z,995.10
2018-04-02T00:55:13.966Z,995.08
2018-04-02T00:56:13.993Z,995.07
2018-04-02T00:57:14.017Z,995.08
2018-04-02T00:58:14.044Z,995.07
2018-04-02T00:59:14.067Z,995.01
2018-04-02T01:00:14.095Z,994.94
2018-04-02T01:01:14.124Z,994.93
2018-04-02T01:02:14.147Z,994.94
2018-04-02T01:03:14.173Z,994.89
2018-04-02T01:04:14.198Z,994.87
2018-04-02T01:05:14.245Z,994.90
2018-04-02T01:06:14.250Z,994.86
2018-04-02T01:07:14.275Z,994.90
2018-04-02T01:08:14.301Z,994.88
2018-04-02T01:09:14.326Z,994.85
2018-04-02T01:10:14.353Z,994.85
2018-04-02T01:11:14.378Z,994.80
2018-04-02T01:12:14.405Z,994.80
2018-04-02T01:13:14.428Z,994.83
2018-04-02T01:14:14.460Z,994.77
2018-04-02T01:15:14.487Z,994.83
2018-04-02T01:16:14.506Z,994.85
2018-04-02T01:17:14.531Z,994.83
2018-04-02T01:18:14.558Z,994.79
2018-04-02T01:19:14.583Z,994.78
2018-04-02T01:20:14.607Z,994.82
2018-04-02T01:21:14.634Z,994.83
2018-04-02T01:22:14.660Z,994.90
2018-04-02T01:23:14.685Z,994.83
2018-04-02T01:24:14.711Z,994.84
2018-04-02T01:25:14.737Z,994.89
2018-04-02T01:26:14.762Z,994.88
2018-04-02T01:27:14.789Z,994.85
2018-04-02T01:28:14.814Z,994.86
2018-04-02T01:29:14.838Z,994.87
2018-04-02T01:30:14.865Z,994.84
2018-04-02T01:31:14.892Z,994.84
2018-04-02T01:32:14.921Z,994.84
2018-04-02T01:33:14.941Z,994.81
2018-04-02T01:34:14.972Z,994.78
2018-04-02T01:35:14.992Z,994.75
2018-04-02T01:36:15.016Z,994.73
2018-04-02T01:37:15.042Z,994.74
2018-04-02T01:38:15.068Z,994.72
2018-04-02T01:39:15.093Z,994.70
2018-04-02T01:40:15.120Z,994.75
2018-04-02T01:41:15.146Z,994.68
2018-04-02T01:42:15.169Z,994.70
2018-04-02T01:43:15.195Z,994.61
2018-04-02T01:44:15.220Z,994.62
2018-04-02T01:45:15.247Z,994.62
2018-04-02T01:46:15.272Z,994.64
2018-04-02T01:47:15.297Z,994.63
2018-04-02T01:48:15.322Z,994.60
2018-04-02T01:49:15.349Z,994.63
2018-04-02T01:50:15.374Z,994.57
2018-04-02T01:51:15.399Z,994.58
2018-04-02T01:52:15.425Z,994.60
2018-04-02T01:53:15.449Z,994.63
2018-04-02T01:54:15.476Z,994.58
2018-04-02T01:55:15.500Z,994.57
2018-04-02T01:56:15.526Z,994.60
2018-04-02T01:57:15.555Z,994.62
2018-04-02T01:58:15.577Z,994.61
2018-04-02T01:59:15.602Z,994.59
2018-04-02T02:00:15.627Z,994.58
2018-04-02T02:01:15.656Z,994.62
2018-04-02T02:02:15.679Z,994.61
2018-04-02T02:03:15.703Z,994.65
2018-04-02T02:04:15.730Z,994.63
2018-04-02T02:05:15.754Z,994.66
2018-04-02T02:06:15.780Z,994.65
2018-04-02T02:07:15.812Z,994.66
2018-04-02T02:08:15.831Z,994.62
2018-04-02T02:09:15.858Z,994.63
2018-04-02T02:10:15.883Z,994.57
2018-04-02T02:11:15.909Z,994.59
2018-04-02T02:12:15.934Z,994.54
2018-04-02T02:13:15.960Z,994.53
2018-04-02T02:14:15.990Z,994.53
2018-04-02T02:15:16.010Z,994.49
2018-04-02T02:16:16.036Z,994.49
2018-04-02T02:17:16.063Z,994.47
2018-04-02T02:18:16.089Z,994.45
2018-04-02T02:19:16.111Z,994.40
2018-04-02T02:20:16.139Z,994.35
2018-04-02T02:21:16.165Z,994.40
2018-04-02T02:22:16.191Z,994.40
2018-04-02T02:23:16.215Z,994.38
2018-04-02T02:24:16.241Z,994.35
2018-04-02T02:25:16.267Z,994.33
2018-04-02T02:26:16.293Z,994.30
2018-04-02T02:27:16.316Z,994.26
2018-04-02T02:28:16.343Z,994.26
2018-04-02T02:29:16.369Z,994.25
2018-04-02T02:30:16.398Z,994.26
2018-04-02T02:31:16.423Z,994.24
2018-04-02T02:32:16.448Z,994.26
2018-04-02T02:33:16.472Z,994.25
2018-04-02T02:34:16.497Z,994.27
2018-04-02T02:35:16.523Z,994.23
2018-04-02T02:36:16.549Z,994.23
2018-04-02T02:37:16.574Z,994.21
2018-04-02T02:38:16.598Z,994.21
2018-04-02T02:39:16.625Z,994.22
2018-04-02T02:40:16.649Z,994.20
2018-04-02T02:41:16.676Z,994.13
2018-04-02T02:42:16.701Z,994.16
2018-04-02T02:43:16.741Z,994.16
2018-04-02T02:44:16.754Z,994.17
2018-04-02T02:45:16.778Z,994.14
2018-04-02T02:46:16.805Z,994.09
2018-04-02T02:47:16.831Z,994.10
2018-04-02T02:48:16.855Z,994.09
2018-04-02T02:49:16.880Z,994.07
2018-04-02T02:50:16.911Z,994.02
2018-04-02T02:51:16.931Z,994.09
2018-04-02T02:52:16.957Z,994.11
2018-04-02T02:53:16.984Z,994.12
2018-04-02T02:54:17.009Z,994.17
2018-04-02T02:55:17.032Z,994.20
2018-04-02T02:56:17.059Z,994.18
2018-04-02T02:57:17.085Z,994.20
2018-04-02T02:58:17.110Z,994.13
2018-04-02T02:59:17.135Z,994.17
2018-04-02T03:00:17.159Z,994.15
2018-04-02T03:01:17.187Z,994.12
2018-04-02T03:02:17.215Z,994.12
2018-04-02T03:03:17.282Z,994.15
2018-04-02T03:04:17.262Z,994.12
2018-04-02T03:05:17.290Z,994.05
2018-04-02T03:06:17.314Z,994.05
2018-04-02T03:07:17.337Z,994.01
2018-04-02T03:08:17.365Z,993.96
2018-04-02T03:09:17.390Z,993.98
2018-04-02T03:10:17.415Z,993.91
2018-04-02T03:11:17.439Z,993.93
2018-04-02T03:12:17.465Z,993.91
2018-04-02T03:13:17.491Z,993.93
2018-04-02T03:14:17.518Z,993.93
2018-04-02T03:15:17.541Z,993.95
2018-04-02T03:16:17.567Z,993.96
2018-04-02T03:17:17.593Z,993.97
2018-04-02T03:18:17.618Z,993.98
2018-04-02T03:19:17.645Z,993.95
2018-04-02T03:20:17.667Z,993.94
2018-04-02T03:21:17.694Z,993.90
2018-04-02T03:22:17.725Z,993.92
2018-04-02T03:23:17.744Z,993.89
2018-04-02T03:24:17.776Z,993.89
2018-04-02T03:25:17.796Z,993.90
2018-04-02T03:26:17.821Z,993.87
2018-04-02T03:27:17.848Z,993.88
2018-04-02T03:28:17.875Z,993.89
2018-04-02T03:29:17.897Z,993.91
2018-04-02T03:30:17.923Z,993.90
2018-04-02T03:31:17.948Z,993.87
2018-04-02T03:32:17.973Z,993.91
2018-04-02T03:33:17.997Z,993.85
2018-04-02T03:34:18.024Z,993.87
2018-04-02T03:35:18.049Z,993.87
2018-04-02T03:36:18.075Z,993.81
2018-04-02T03:37:18.100Z,993.81
2018-04-02T03:38:18.125Z,993.80
2018-04-02T03:39:18.155Z,993.75
2018-04-02T03:40:18.175Z,993.80
2018-04-02T03:41:18.202Z,993.83
2018-04-02T03:42:18.225Z,993.82
2018-04-02T03:43:18.252Z,993.81
2018-04-02T03:44:18.277Z,993.79
2018-04-02T03:45:18.302Z,993.77
2018-04-02T03:46:18.333Z,993.73
2018-04-02T03:47:18.354Z,993.71
2018-04-02T03:48:18.378Z,993.75
2018-04-02T03:49:18.403Z,993.69
2018-04-02T03:50:18.429Z,993.70
2018-04-02T03:51:18.452Z,993.69
2018-04-02T03:52:18.479Z,993.69
2018-04-02T03:53:18.504Z,993.65
2018-04-02T03:54:18.530Z,993.65
2018-04-02T03:55:18.554Z,993.62
2018-04-02T03:56:18.580Z,993.65
2018-04-02T03:57:18.605Z,993.66
2018-04-02T03:58:18.631Z,993.69
2018-04-02T03:59:18.657Z,993.70
2018-04-02T04:00:18.681Z,993.64
2018-04-02T04:01:18.706Z,993.60
2018-04-02T04:02:18.732Z,993.61
2018-04-02T04:03:18.756Z,993.60
2018-04-02T04:04:18.781Z,993.58
2018-04-02T04:05:18.807Z,993.58
2018-04-02T04:06:18.834Z,993.55
2018-04-02T04:07:18.857Z,993.55
2018-04-02T04:08:18.881Z,993.54
2018-04-02T04:09:18.908Z,993.51
2018-04-02T04:10:18.932Z,993.52
2018-04-02T04:11:18.957Z,993.51
2018-04-02T04:12:18.983Z,993.48
2018-04-02T04:13:19.012Z,993.47
2018-04-02T04:14:19.034Z,993.45
2018-04-02T04:15:19.059Z,993.48
2018-04-02T04:16:19.083Z,993.45
2018-04-02T04:17:19.109Z,993.48
2018-04-02T04:18:19.134Z,993.48
2018-04-02T04:19:19.158Z,993.51
2018-04-02T04:20:19.183Z,993.57
2018-04-02T04:21:19.210Z,993.55
2018-04-02T04:22:19.234Z,993.54
2018-04-02T04:23:19.258Z,993.64
2018-04-02T04:24:19.283Z,993.66
2018-04-02T04:25:19.308Z,993.66
2018-04-02T04:26:19.334Z,993.71
2018-04-02T04:27:19.358Z,993.67
2018-04-02T04:28:19.383Z,993.59
2018-04-02T04:29:19.408Z,993.59
2018-04-02T04:30:19.434Z,993.55
2018-04-02T04:31:19.465Z,993.59
2018-04-02T04:32:19.487Z,993.53
2018-04-02T04:33:19.512Z,993.55
2018-04-02T04:34:19.534Z,993.53
2018-04-02T04:35:19.560Z,993.51
2018-04-02T04:36:19.583Z,993.52
2018-04-02T04:37:19.608Z,993.55
2018-04-02T04:38:19.634Z,993.55
2018-04-02T04:39:19.659Z,993.53
2018-04-02T04:40:19.694Z,993.56
2018-04-02T04:41:19.709Z,993.54
2018-04-02T04:42:19.734Z,993.51
2018-04-02T04:43:19.759Z,993.49
2018-04-02T04:44:19.788Z,993.54
2018-04-02T04:45:19.810Z,993.53
2018-04-02T04:46:19.834Z,993.52
2018-04-02T04:47:19.858Z,993.56
2018-04-02T04:48:19.884Z,993.56
2018-04-02T04:49:19.908Z,993.63
2018-04-02T04:50:19.933Z,993.60
2018-04-02T04:51:19.960Z,993.57
2018-04-02T04:52:19.982Z,993.54
2018-04-02T04:53:20.008Z,993.53
2018-04-02T04:54:20.033Z,993.52
2018-04-02T04:55:20.058Z,993.53
2018-04-02T04:56:20.086Z,993.48
2018-04-02T04:57:20.108Z,993.43
2018-04-02T04:58:20.132Z,993.45
2018-04-02T04:59:20.162Z,993.38
2018-04-02T05:00:20.191Z,993.33
2018-04-02T05:01:20.208Z,993.30
2018-04-02T05:02:20.232Z,993.31
2018-04-02T05:03:20.258Z,993.35
2018-04-02T05:04:20.284Z,993.28
2018-04-02T05:05:20.308Z,993.27
2018-04-02T05:06:20.334Z,993.21
2018-04-02T05:07:20.357Z,993.22
2018-04-02T05:08:20.382Z,993.21
2018-04-02T05:09:20.413Z,993.24
2018-04-02T05:10:20.433Z,993.22
2018-04-02T05:11:20.465Z,993.16
2018-04-02T05:12:20.538Z,993.20
2018-04-02T05:13:20.508Z,993.19
2018-04-02T05:14:20.533Z,993.14
2018-04-02T05:15:20.556Z,993.21
2018-04-02T05:16:20.583Z,993.17
2018-04-02T05:17:20.607Z,993.16
2018-04-02T05:18:20.633Z,993.18
2018-04-02T05:19:20.656Z,993.19
2018-04-02T05:20:20.683Z,993.15
2018-04-02T05:21:20.712Z,993.16
2018-04-02T05:22:20.738Z,993.19
2018-04-02T05:23:20.757Z,993.19
2018-04-02T05:24:20.782Z,993.15
2018-04-02T05:25:20.806Z,993.20
2018-04-02T05:26:20.833Z,993.17
2018-04-02T05:27:20.857Z,993.16
2018-04-02T05:28:20.882Z,993.15
2018-04-02T05:29:20.909Z,993.16
2018-04-02T05:30:20.933Z,993.20
2018-04-02T05:31:20.959Z,993.15
2018-04-02T05:32:20.982Z,993.17
2018-04-02T05:33:21.007Z,993.17
2018-04-02T05:34:21.033Z,993.17
2018-04-02T05:35:21.057Z,993.17
2018-04-02T05:36:21.083Z,993.15
2018-04-02T05:37:21.110Z,993.15
2018-04-02T05:38:21.137Z,993.12
2018-04-02T05:39:21.157Z,993.09
2018-04-02T05:40:21.181Z,993.05
2018-04-02T05:41:21.209Z,993.14
2018-04-02T05:42:21.232Z,993.09
2018-04-02T05:43:21.256Z,993.14
2018-04-02T05:44:21.281Z,993.09
2018-04-02T05:45:21.308Z,993.09
2018-04-02T05:46:21.332Z,993.09
2018-04-02T05:47:21.358Z,993.06
2018-04-02T05:48:21.381Z,993.12
2018-04-02T05:49:21.407Z,993.12
2018-04-02T05:50:21.435Z,993.12
2018-04-02T05:51:21.458Z,993.07
2018-04-02T05:52:21.483Z,993.02
2018-04-02T05:53:21.508Z,993.05
2018-04-02T05:54:21.534Z,993.03
2018-04-02T05:55:21.560Z,993.05
2018-04-02T05:56:21.587Z,993.08
2018-04-02T05:57:21.609Z,993.06
2018-04-02T05:58:21.635Z,993.09
2018-04-02T05:59:21.662Z,993.07
2018-04-02T06:00:21.686Z,993.05
2018-04-02T06:01:21.711Z,993.00
2018-04-02T06:02:21.737Z,992.97
2018-04-02T06:03:21.761Z,993.03
2018-04-02T06:04:21.788Z,993.01
2018-04-02T06:05:21.814Z,992.98
2018-04-02T06:06:21.840Z,993.01
2018-04-02T06:07:21.865Z,992.96
2018-04-02T06:08:21.894Z,992.96
2018-04-02T06:09:21.916Z,993.01
2018-04-02T06:10:21.943Z,992.99
2018-04-02T06:11:21.971Z,993.05
2018-04-02T06:12:21.994Z,993.01
2018-04-02T06:13:22.021Z,992.95
2018-04-02T06:14:22.047Z,992.96
2018-04-02T06:15:22.072Z,992.96
2018-04-02T06:16:22.099Z,992.99
2018-04-02T06:17:22.125Z,992.96
2018-04-02T06:18:22.151Z,992.98
2018-04-02T06:19:22.179Z,992.97
2018-04-02T06:20:22.204Z,992.97
2018-04-02T06:21:22.231Z,992.93
2018-04-02T06:22:22.261Z,992.92
2018-04-02T06:23:22.284Z,992.91
2018-04-02T06:24:22.310Z,992.96
2018-04-02T06:25:22.336Z,992.86
2018-04-02T06:26:22.362Z,992.89
2018-04-02T06:27:22.386Z,992.87
2018-04-02T06:28:22.414Z,992.89
2018-04-02T06:29:22.440Z,992.81
2018-04-02T06:30:22.468Z,992.82
2018-04-02T06:31:22.496Z,992.83
2018-04-02T06:32:22.520Z,992.84
2018-04-02T06:33:22.546Z,992.81
2018-04-02T06:34:22.573Z,992.77
2018-04-02T06:35:22.599Z,992.80
2018-04-02T06:36:22.626Z,992.77
2018-04-02T06:37:22.653Z,992.75
2018-04-02T06:38:22.688Z,992.73
2018-04-02T06:39:22.705Z,992.78
2018-04-02T06:40:22.742Z,992.72
2018-04-02T06:41:22.759Z,992.77
2018-04-02T06:42:22.787Z,992.83
2018-04-02T06:43:22.812Z,992.73
2018-04-02T06:44:22.840Z,992.77
2018-04-02T06:45:22.865Z,992.80
2018-04-02T06:46:22.894Z,992.78
2018-04-02T06:47:22.919Z,992.78
2018-04-02T06:48:22.949Z,992.79
2018-04-02T06:49:22.973Z,992.80
2018-04-02T06:50:23.007Z,992.80
2018-04-02T06:51:23.027Z,992.81
2018-04-02T06:52:23.054Z,992.78
2018-04-02T06:53:23.082Z,992.79
2018-04-02T06:54:23.109Z,992.77
2018-04-02T06:55:23.138Z,992.72
2018-04-02T06:56:23.163Z,992.72
2018-04-02T06:57:23.190Z,992.71
2018-04-02T06:58:23.218Z,992.71
2018-04-02T06:59:23.245Z,992.70
2018-04-02T07:00:23.274Z,992.66
2018-04-02T07:01:23.300Z,992.68
2018-04-02T07:02:23.328Z,992.66
2018-04-02T07:03:23.354Z,992.63
2018-04-02T07:04:23.381Z,992.67
2018-04-02T07:05:23.409Z,992.66
2018-04-02T07:06:23.437Z,992.66
2018-04-02T07:07:23.463Z,992.68
2018-04-02T07:08:23.491Z,992.68
2018-04-02T07:09:23.518Z,992.60
2018-04-02T07:10:23.546Z,992.69
2018-04-02T07:11:23.575Z,992.68
2018-04-02T07:12:23.602Z,992.69
2018-04-02T07:13:23.630Z,992.71
2018-04-02T07:14:23.657Z,992.65
2018-04-02T07:15:23.684Z,992.67
2018-04-02T07:16:23.712Z,992.67
2018-04-02T07:17:23.804Z,992.73
2018-04-02T07:18:23.768Z,992.70
2018-04-02T07:19:23.796Z,992.65
2018-04-02T07:20:23.826Z,992.72
2018-04-02T07:21:23.852Z,992.69
2018-04-02T07:22:23.881Z,992.73
2018-04-02T07:23:23.908Z,992.71
2018-04-02T07:24:23.937Z,992.69
2018-04-02T07:25:23.967Z,992.68
2018-04-02T07:26:23.994Z,992.65
2018-04-02T07:27:24.024Z,992.64
2018-04-02T07:28:24.050Z,992.58
2018-04-02T07:29:24.084Z,992.62
2018-04-02T07:30:24.107Z,992.57
2018-04-02T07:31:24.136Z,992.59
2018-04-02T07:32:24.165Z,992.55
2018-04-02T07:33:24.194Z,992.59
2018-04-02T07:34:24.223Z,992.64
2018-04-02T07:35:24.251Z,992.60
2018-04-02T07:36:24.280Z,992.54
2018-04-02T07:37:24.348Z,992.56
2018-04-02T07:38:24.337Z,992.55
2018-04-02T07:39:24.367Z,992.49
2018-04-02T07:40:24.396Z,992.50
2018-04-02T07:41:24.425Z,992.42
2018-04-02T07:42:24.456Z,992.43
2018-04-02T07:43:24.484Z,992.39
2018-04-02T07:44:24.539Z,992.37
2018-04-02T07:45:24.540Z,992.39
2018-04-02T07:46:24.569Z,992.38
2018-04-02T07:47:24.597Z,992.38
2018-04-02T07:48:24.627Z,992.40
2018-04-02T07:49:24.657Z,992.43
2018-04-02T07:50:24.688Z,992.39
2018-04-02T07:51:24.715Z,992.43
2018-04-02T07:52:24.744Z,992.44
2018-04-02T07:53:24.782Z,992.49
2018-04-02T07:54:24.803Z,992.46
2018-04-02T07:55:24.837Z,992.52
2018-04-02T07:56:24.862Z,992.57
2018-04-02T07:57:24.892Z,992.52
2018-04-02T07:58:24.922Z,992.54
2018-04-02T07:59:24.951Z,992.50
2018-04-02T08:00:24.981Z,992.48
2018-04-02T08:01:25.011Z,992.47
2018-04-02T08:02:25.041Z,992.48
2018-04-02T08:03:25.076Z,992.39
2018-04-02T08:04:25.100Z,992.39
2018-04-02T08:05:25.131Z,992.31
2018-04-02T08:06:25.161Z,992.30
2018-04-02T08:07:25.191Z,992.27
2018-04-02T08:08:25.222Z,992.26
2018-04-02T08:09:25.316Z,992.27
2018-04-02T08:10:25.284Z,992.34
2018-04-02T08:11:25.315Z,992.32
2018-04-02T08:12:25.343Z,992.29
2018-04-02T08:13:25.373Z,992.31
2018-04-02T08:14:25.410Z,992.30
2018-04-02T08:15:25.435Z,992.32
2018-04-02T08:16:25.466Z,992.33
2018-04-02T08:17:25.497Z,992.37
2018-04-02T08:18:25.529Z,992.34
2018-04-02T08:19:25.558Z,992.32
2018-04-02T08:20:25.590Z,992.33
2018-04-02T08:21:25.620Z,992.36
2018-04-02T08:22:25.652Z,992.36
2018-04-02T08:23:25.683Z,992.36
2018-04-02T08:24:25.718Z,992.38
2018-04-02T08:25:25.790Z,992.39
2018-04-02T08:26:25.777Z,992.37
2018-04-02T08:27:25.808Z,992.35
2018-04-02T08:28:25.841Z,992.33
2018-04-02T08:29:25.871Z,992.35
2018-04-02T08:30:25.902Z,992.35
2018-04-02T08:31:25.933Z,992.36
2018-04-02T08:32:25.968Z,992.35
2018-04-02T08:33:25.998Z,992.40
2018-04-02T08:34:26.030Z,992.37
2018-04-02T08:35:26.061Z,992.39
2018-04-02T08:36:26.129Z,992.30
2018-04-02T08:37:26.126Z,992.33
2018-04-02T08:38:26.157Z,992.25
2018-04-02T08:39:26.192Z,992.34
2018-04-02T08:40:26.221Z,992.29
2018-04-02T08:41:26.252Z,992.34
2018-04-02T08:42:26.285Z,992.30
2018-04-02T08:43:26.317Z,992.28
2018-04-02T08:44:26.349Z,992.25
2018-04-02T08:45:26.382Z,992.29
2018-04-02T08:46:26.415Z,992.26
2018-04-02T08:47:26.448Z,992.25
2018-04-02T08:48:26.485Z,992.24
2018-04-02T08:49:26.513Z,992.24
2018-04-02T08:50:26.546Z,992.17
2018-04-02T08:51:26.590Z,992.17
2018-04-02T08:52:26.612Z,992.18
2018-04-02T08:53:26.645Z,992.16
2018-04-02T08:54:26.682Z,992.14
2018-04-02T08:55:26.712Z,992.17
2018-04-02T08:56:26.748Z,992.16
2018-04-02T08:57:26.780Z,992.13
2018-04-02T08:58:26.814Z,992.11
2018-04-02T08:59:26.847Z,992.10
2018-04-02T09:00:26.882Z,992.05
2018-04-02T09:01:26.915Z,992.08
2018-04-02T09:02:26.950Z,992.07
2018-04-02T09:03:26.984Z,992.03
2018-04-02T09:04:27.022Z,992.03
2018-04-02T09:05:27.052Z,992.05
2018-04-02T09:06:27.087Z,992.05
2018-04-02T09:07:27.121Z,992.02
2018-04-02T09:08:27.156Z,991.99
2018-04-02T09:09:27.191Z,991.98
2018-04-02T09:10:27.226Z,991.84
2018-04-02T09:11:27.261Z,991.90
2018-04-02T09:12:27.297Z,991.87
2018-04-02T09:13:27.333Z,991.87
2018-04-02T09:14:27.369Z,991.85
2018-04-02T09:15:27.406Z,991.96
2018-04-02T09:16:27.442Z,991.95
2018-04-02T09:17:27.478Z,991.99
2018-04-02T09:18:27.517Z,992.00
2018-04-02T09:19:27.554Z,991.99
2018-04-02T09:20:27.591Z,992.01
2018-04-02T09:21:27.630Z,991.88
2018-04-02T09:22:27.671Z,991.87
2018-04-02T09:23:27.707Z,991.84
2018-04-02T09:24:27.746Z,991.64
2018-04-02T09:25:27.786Z,991.64
2018-04-02T09:26:27.826Z,991.69
2018-04-02T09:27:27.864Z,991.70
2018-04-02T09:28:27.903Z,991.68
2018-04-02T09:29:27.944Z,991.67
2018-04-02T09:30:27.982Z,991.76
2018-04-02T09:31:28.022Z,991.75
2018-04-02T09:32:28.061Z,991.71
2018-04-02T09:33:28.101Z,991.74
2018-04-02T09:34:28.144Z,991.71
2018-04-02T09:35:28.226Z,991.68
2018-04-02T09:36:28.221Z,991.58
2018-04-02T09:37:28.258Z,991.58
2018-04-02T09:38:28.300Z,991.67
2018-04-02T09:39:28.340Z,991.64
2018-04-02T09:40:28.381Z,991.68
2018-04-02T09:41:28.420Z,991.65
2018-04-02T09:42:28.460Z,991.61
2018-04-02T09:43:28.501Z,991.68
2018-04-02T09:44:28.541Z,991.67
2018-04-02T09:45:28.584Z,991.68
2018-04-02T09:46:28.624Z,991.77
2018-04-02T09:47:28.664Z,991.74
2018-04-02T09:48:28.707Z,991.71
2018-04-02T09:49:28.749Z,991.66
2018-04-02T09:50:28.792Z,991.62
2018-04-02T09:51:28.832Z,991.63
2018-04-02T09:52:28.874Z,991.62
2018-04-02T09:53:28.917Z,991.61
2018-04-02T09:54:28.964Z,991.58
2018-04-02T09:55:29.003Z,991.58
2018-04-02T09:56:29.046Z,991.51
2018-04-02T09:57:29.090Z,991.34
2018-04-02T09:58:29.133Z,991.22
2018-04-02T09:59:29.185Z,991.23
2018-04-02T10:00:29.220Z,991.33
2018-04-02T10:01:29.262Z,991.35
2018-04-02T10:02:29.306Z,991.38
2018-04-02T10:03:29.348Z,991.41
2018-04-02T10:04:29.433Z,991.49
2018-04-02T10:05:29.437Z,991.53
2018-04-02T10:06:29.480Z,991.51
2018-04-02T10:07:29.524Z,991.51
2018-04-02T10:08:29.573Z,991.50
2018-04-02T10:09:29.611Z,991.51
2018-04-02T10:10:29.750Z,991.58
2018-04-02T10:11:29.699Z,991.61
2018-04-02T10:12:29.743Z,991.66
2018-04-02T10:13:29.788Z,991.68
2018-04-02T10:14:29.833Z,991.66
2018-04-02T10:15:29.956Z,991.77
2018-04-02T10:16:29.922Z,991.74
2018-04-02T10:17:29.967Z,991.70
2018-04-02T10:18:30.012Z,991.72
2018-04-02T10:19:30.058Z,991.74
2018-04-02T10:20:30.104Z,991.80
2018-04-02T10:21:30.151Z,991.91
2018-04-02T10:22:30.197Z,991.88
2018-04-02T10:23:30.242Z,991.93
2018-04-02T10:24:30.289Z,991.91
2018-04-02T10:25:30.336Z,991.90
2018-04-02T10:26:30.384Z,991.76
2018-04-02T10:27:30.430Z,991.77
2018-04-02T10:28:30.479Z,991.71
2018-04-02T10:29:30.526Z,991.74
2018-04-02T10:30:30.575Z,991.62
2018-04-02T10:31:30.624Z,991.67
2018-04-02T10:32:30.672Z,991.68
2018-04-02T10:33:30.721Z,991.68
2018-04-02T10:34:30.770Z,991.50
2018-04-02T10:35:30.822Z,991.53
2018-04-02T10:36:30.867Z,991.51
2018-04-02T10:37:30.916Z,991.64
2018-04-02T10:38:30.965Z,991.57
2018-04-02T10:39:31.015Z,991.62
2018-04-02T10:40:31.065Z,991.69
2018-04-02T10:41:31.115Z,991.65
2018-04-02T10:42:31.165Z,991.51
2018-04-02T10:43:31.212Z,991.54
2018-04-02T10:44:31.264Z,991.53
2018-04-02T10:45:31.313Z,991.62
2018-04-02T10:46:31.364Z,991.59
2018-04-02T10:47:31.414Z,991.45
2018-04-02T10:48:31.494Z,991.47
2018-04-02T10:49:31.514Z,991.32
2018-04-02T10:50:31.564Z,991.26
2018-04-02T10:51:31.613Z,991.25
2018-04-02T10:52:31.665Z,991.31
2018-04-02T10:53:31.717Z,991.34
2018-04-02T10:54:31.765Z,991.23
2018-04-02T10:55:31.815Z,991.18
2018-04-02T10:56:31.864Z,991.27
2018-04-02T10:57:31.916Z,991.27
2018-04-02T10:58:31.965Z,991.32
2018-04-02T10:59:32.016Z,991.41
2018-04-02T11:00:32.066Z,991.33
2018-04-02T11:01:32.115Z,991.33
2018-04-02T11:02:32.165Z,991.39
2018-04-02T11:03:32.214Z,991.33
2018-04-02T11:04:32.266Z,991.28
2018-04-02T11:05:32.317Z,991.23
2018-04-02T11:06:32.366Z,991.29
2018-04-02T11:07:32.416Z,991.22
2018-04-02T11:08:32.466Z,991.21
2018-04-02T11:09:32.517Z,990.88
2018-04-02T11:10:32.567Z,991.07
2018-04-02T11:11:32.617Z,990.93
2018-04-02T11:12:32.713Z,990.98
2018-04-02T11:13:32.718Z,990.97
2018-04-02T11:14:32.769Z,990.73
2018-04-02T11:15:32.819Z,990.86
2018-04-02T11:16:32.869Z,991.02
2018-04-02T11:17:32.920Z,991.08
2018-04-02T11:18:32.981Z,991.11
2018-04-02T11:19:33.019Z,990.65
2018-04-02T11:20:33.070Z,990.78
2018-04-02T11:21:33.121Z,990.90
2018-04-02T11:22:33.170Z,990.91
2018-04-02T11:23:33.220Z,990.84
2018-04-02T11:24:33.269Z,990.84
2018-04-02T11:25:33.320Z,990.66
2018-04-02T11:26:33.371Z,990.61
2018-04-02T11:27:33.420Z,990.40
2018-04-02T11:28:33.470Z,990.09
2018-04-02T11:29:33.521Z,989.95
2018-04-02T11:30:33.571Z,989.82
2018-04-02T11:31:33.630Z,989.78
2018-04-02T11:32:33.671Z,989.76
2018-04-02T11:33:33.721Z,989.82
2018-04-02T11:34:33.771Z,989.76
2018-04-02T11:35:33.819Z,989.82
2018-04-02T11:36:33.871Z,989.79
2018-04-02T11:37:33.918Z,989.83
2018-04-02T11:38:33.968Z,989.87
2018-04-02T11:39:34.016Z,989.90
2018-04-02T11:40:34.062Z,989.89
2018-04-02T11:41:34.106Z,989.92
2018-04-02T11:42:34.154Z,989.94
2018-04-02T11:43:34.203Z,989.88
2018-04-02T11:44:34.248Z,989.89
2018-04-02T11:45:34.295Z,989.89
2018-04-02T11:46:34.341Z,989.82
2018-04-02T11:47:34.387Z,989.83
2018-04-02T11:48:34.433Z,989.84
2018-04-02T11:49:34.480Z,989.84
2018-04-02T11:50:34.524Z,989.83
2018-04-02T11:51:34.571Z,989.75
2018-04-02T11:52:34.616Z,989.66
2018-04-02T11:53:34.663Z,989.69
2018-04-02T11:54:34.708Z,989.55
2018-04-02T11:55:34.752Z,989.45
2018-04-02T11:56:34.798Z,989.44
2018-04-02T11:57:34.844Z,989.43
2018-04-02T11:58:34.890Z,989.39
2018-04-02T11:59:34.934Z,989.37
2018-04-02T12:00:34.978Z,989.38
2018-04-02T12:01:35.023Z,989.37
2018-04-02T12:02:35.067Z,989.39
2018-04-02T12:03:35.110Z,989.44
2018-04-02T12:04:35.155Z,989.55
2018-04-02T12:05:35.203Z,989.57
2018-04-02T12:06:35.243Z,989.68
2018-04-02T12:07:35.286Z,989.71
2018-04-02T12:08:35.329Z,989.71
2018-04-02T12:09:35.404Z,989.67
2018-04-02T12:10:35.418Z,989.62
2018-04-02T12:11:35.460Z,989.59
2018-04-02T12:12:35.504Z,989.69
2018-04-02T12:13:35.549Z,989.70
2018-04-02T12:14:35.592Z,989.64
2018-04-02T12:15:35.634Z,989.62
2018-04-02T12:16:35.678Z,989.51
2018-04-02T12:17:35.722Z,989.52
2018-04-02T12:18:35.766Z,989.45
2018-04-02T12:19:35.808Z,989.35
2018-04-02T12:20:35.853Z,989.34
2018-04-02T12:21:35.896Z,989.40
2018-04-02T12:22:35.939Z,989.39
2018-04-02T12:23:35.981Z,989.45
2018-04-02T12:24:36.024Z,989.54
2018-04-02T12:25:36.067Z,989.50
2018-04-02T12:26:36.117Z,989.49
2018-04-02T12:27:36.153Z,989.45
2018-04-02T12:28:36.200Z,989.40